DNYO

Yola Airport

Yola, Nigeria
TAF DNYO 210930Z 2112/2218 05007KT CAVOK
Issued Valid From Valid To
Jan-21 @ 09:30 UTC
(15 hours ago)
Jan-21 @ 12:00 UTC
(13 hours ago)
Jan-22 @ 18:00 UTC
(in 17 hours)
Jan-21 @ 12:00 to Jan-22 @ 18:00
TAF DNYO 210930Z 2112/2218 05007KT CAVOK
Wind Visibility Clouds Conditions
50° at 7 knots 10,000+ meters
  • No significant clouds
TAF DNYO 210930Z 2112/2218 05007KT CAVOK
Issued Jan-21 @ 09:30 UTC
(15 hours ago)
Valid From Jan-21 @ 12:00 UTC
(13 hours ago)
Valid To Jan-22 @ 18:00 UTC
(in 17 hours)
Jan-21 @ 12:00 - Jan-22 @ 18:00
Wind Visibility
50° at 7 knots 10,000+ meters
Clouds
  • No significant clouds
Conditions